createdAt,value
2023-07-18T00:01:29.158Z,24.75
2023-07-18T00:03:56.826Z,24.73
2023-07-18T00:06:27.794Z,24.70
2023-07-18T00:08:55.457Z,24.65
2023-07-18T00:11:23.593Z,24.59
2023-07-18T00:13:50.978Z,24.54
2023-07-18T00:16:18.379Z,24.51
2023-07-18T00:18:46.846Z,24.51
2023-07-18T00:21:13.978Z,24.52
2023-07-18T00:23:41.110Z,24.51
2023-07-18T00:26:11.457Z,24.49
2023-07-18T00:28:38.909Z,24.45
2023-07-18T00:31:06.450Z,24.44
2023-07-18T00:33:33.577Z,24.40
2023-07-18T00:36:01.999Z,24.38
2023-07-18T00:38:29.042Z,24.33
2023-07-18T00:40:56.933Z,24.30
2023-07-18T00:43:23.942Z,24.28
2023-07-18T00:45:51.706Z,24.25
2023-07-18T00:48:19.250Z,24.21
2023-07-18T00:50:51.720Z,24.18
2023-07-18T00:53:21.457Z,24.12
2023-07-18T00:55:48.883Z,24.11
2023-07-18T00:58:17.193Z,24.07
2023-07-18T01:00:44.229Z,24.05
2023-07-18T01:03:11.809Z,24.04
2023-07-18T01:05:44.809Z,24.02
2023-07-18T01:08:14.985Z,23.99
2023-07-18T01:10:43.818Z,23.95
2023-07-18T01:13:13.400Z,23.91
2023-07-18T01:15:40.702Z,23.87
2023-07-18T01:18:10.336Z,23.86
2023-07-18T01:20:38.979Z,23.82
2023-07-18T01:23:07.778Z,23.78
2023-07-18T01:25:35.937Z,23.76
2023-07-18T01:28:04.318Z,23.72
2023-07-18T01:30:31.763Z,23.68
2023-07-18T01:32:59.416Z,23.64
2023-07-18T01:35:28.869Z,23.64
2023-07-18T01:37:57.609Z,23.61
2023-07-18T01:40:27.180Z,23.57
2023-07-18T01:42:55.277Z,23.54
2023-07-18T01:45:23.567Z,23.51
2023-07-18T01:47:54.577Z,23.49
2023-07-18T01:50:21.843Z,23.49
2023-07-18T01:52:49.883Z,23.51
2023-07-18T01:55:17.472Z,23.49
2023-07-18T01:57:47.855Z,23.44
2023-07-18T02:00:20.633Z,23.35
2023-07-18T02:02:50.154Z,23.28
2023-07-18T02:05:19.909Z,23.24
2023-07-18T02:07:48.928Z,23.25
2023-07-18T02:10:20.660Z,23.21
2023-07-18T02:12:50.249Z,23.17
2023-07-18T02:15:17.740Z,23.16
2023-07-18T02:17:45.092Z,23.16
2023-07-18T02:20:15.701Z,23.15
2023-07-18T02:22:44.519Z,23.14
2023-07-18T02:25:14.994Z,23.14
2023-07-18T02:27:42.668Z,23.13
2023-07-18T02:30:14.838Z,23.11
2023-07-18T02:32:44.375Z,23.11
2023-07-18T02:35:13.673Z,23.10
2023-07-18T02:37:40.881Z,23.08
2023-07-18T02:40:13.783Z,23.05
2023-07-18T02:42:41.272Z,23.04
2023-07-18T02:45:10.916Z,23.01
2023-07-18T02:47:40.929Z,22.99
2023-07-18T02:50:09.027Z,22.96
2023-07-18T02:52:36.224Z,22.93
2023-07-18T02:55:04.568Z,22.91
2023-07-18T02:57:34.468Z,22.92
2023-07-18T03:00:01.721Z,22.91
2023-07-18T03:02:32.631Z,22.90
2023-07-18T03:05:01.449Z,22.87
2023-07-18T03:07:28.498Z,22.83
2023-07-18T03:09:55.999Z,22.81
2023-07-18T03:12:23.321Z,22.79
2023-07-18T03:14:51.348Z,22.79
2023-07-18T03:17:18.544Z,22.80
2023-07-18T03:19:45.784Z,22.79
2023-07-18T03:22:16.012Z,22.79
2023-07-18T03:24:43.181Z,22.80
2023-07-18T03:27:14.388Z,22.81
2023-07-18T03:29:45.219Z,22.80
2023-07-18T03:32:13.219Z,22.83
2023-07-18T03:34:42.805Z,22.87
2023-07-18T03:37:10.318Z,22.90
2023-07-18T03:39:39.253Z,22.92
2023-07-18T03:42:07.067Z,22.96
2023-07-18T03:44:36.815Z,22.98
2023-07-18T03:47:15.714Z,22.95
2023-07-18T03:49:48.036Z,22.97
2023-07-18T03:52:15.139Z,23.02
2023-07-18T03:54:44.311Z,23.02
2023-07-18T03:57:11.327Z,23.08
2023-07-18T03:59:39.678Z,23.17
2023-07-18T04:02:07.290Z,23.27
2023-07-18T04:04:34.617Z,23.35
2023-07-18T04:07:01.709Z,23.45
2023-07-18T04:09:29.328Z,23.54
2023-07-18T04:12:00.490Z,23.64
2023-07-18T04:14:27.932Z,23.71
2023-07-18T04:16:55.167Z,23.76
2023-07-18T04:19:22.406Z,23.79
2023-07-18T04:21:49.557Z,23.85
2023-07-18T04:24:16.572Z,23.91
2023-07-18T04:26:43.819Z,23.98
2023-07-18T04:29:12.774Z,24.08
2023-07-18T04:31:39.791Z,24.18
2023-07-18T04:34:07.244Z,24.27
2023-07-18T04:36:34.342Z,24.38
2023-07-18T04:39:01.397Z,24.45
2023-07-18T04:41:34.951Z,24.55
2023-07-18T04:44:09.686Z,24.59
2023-07-18T04:46:38.155Z,24.67
2023-07-18T04:49:05.433Z,24.76
2023-07-18T04:51:32.946Z,24.89
2023-07-18T04:53:59.978Z,25.08
2023-07-18T04:56:27.283Z,25.32
2023-07-18T04:58:55.144Z,25.53
2023-07-18T05:01:22.364Z,25.71
2023-07-18T05:03:57.986Z,25.91
2023-07-18T05:06:25.628Z,26.11
2023-07-18T05:08:52.628Z,26.23
2023-07-18T05:11:19.999Z,26.37
2023-07-18T05:13:50.350Z,26.47
2023-07-18T05:16:19.869Z,26.56
2023-07-18T05:18:47.146Z,26.65
2023-07-18T05:21:18.734Z,26.84
2023-07-18T05:23:46.130Z,27.08
2023-07-18T05:26:13.303Z,27.20
2023-07-18T05:28:41.084Z,27.27
2023-07-18T05:31:09.184Z,27.20
2023-07-18T05:33:36.928Z,26.99
2023-07-18T05:36:05.353Z,26.93
2023-07-18T05:38:33.850Z,27.05
2023-07-18T05:41:00.831Z,27.16
2023-07-18T05:43:27.892Z,27.32
2023-07-18T05:45:58.407Z,27.54
2023-07-18T05:48:26.620Z,27.78
2023-07-18T05:50:54.804Z,27.97
2023-07-18T05:53:26.098Z,28.05
2023-07-18T05:55:54.613Z,28.14
2023-07-18T05:58:21.772Z,28.20
2023-07-18T06:00:49.165Z,28.18
2023-07-18T06:03:16.376Z,28.28
2023-07-18T06:05:43.627Z,28.52
2023-07-18T06:08:11.746Z,28.80
2023-07-18T06:10:38.798Z,28.94
2023-07-18T06:13:07.204Z,28.88
2023-07-18T06:15:34.310Z,28.70
2023-07-18T06:18:01.592Z,28.65
2023-07-18T06:20:28.767Z,28.67
2023-07-18T06:22:56.012Z,28.82
2023-07-18T06:25:23.403Z,29.00
2023-07-18T06:27:53.174Z,29.16
2023-07-18T06:30:21.687Z,29.12
2023-07-18T06:32:49.795Z,29.17
2023-07-18T06:35:23.799Z,29.44
2023-07-18T06:37:51.247Z,29.67
2023-07-18T06:40:19.017Z,29.60
2023-07-18T06:42:46.067Z,29.43
2023-07-18T06:45:16.193Z,29.40
2023-07-18T06:47:45.417Z,29.42
2023-07-18T06:50:13.682Z,29.54
2023-07-18T06:52:40.759Z,29.79
2023-07-18T06:55:11.920Z,30.01
2023-07-18T06:57:42.557Z,30.29
2023-07-18T07:00:13.243Z,30.28
2023-07-18T07:02:40.520Z,30.26
2023-07-18T07:05:10.383Z,30.45
2023-07-18T07:07:37.387Z,30.49
2023-07-18T07:10:10.337Z,30.46
2023-07-18T07:12:37.862Z,30.44
2023-07-18T07:15:06.054Z,30.76
2023-07-18T07:17:33.985Z,31.23
2023-07-18T07:20:02.369Z,31.63
2023-07-18T07:22:31.061Z,31.97
2023-07-18T07:24:58.648Z,32.08
2023-07-18T07:27:25.870Z,32.32
2023-07-18T07:29:53.386Z,32.56
2023-07-18T07:32:20.584Z,32.58
2023-07-18T07:34:48.246Z,32.51
2023-07-18T07:37:15.299Z,32.26
2023-07-18T07:39:44.533Z,32.38
2023-07-18T07:42:11.958Z,32.64
2023-07-18T07:44:39.009Z,32.92
2023-07-18T07:47:06.652Z,33.32
2023-07-18T07:49:33.960Z,33.52
2023-07-18T07:52:01.022Z,33.61
2023-07-18T07:54:28.236Z,33.80
2023-07-18T07:56:56.799Z,34.17
2023-07-18T07:59:23.833Z,34.55
2023-07-18T08:01:53.423Z,34.77
2023-07-18T08:04:21.071Z,34.75
2023-07-18T08:06:48.603Z,34.78
2023-07-18T08:09:16.319Z,34.87
2023-07-18T08:11:44.025Z,35.05
2023-07-18T08:14:12.667Z,35.15
2023-07-18T08:16:39.905Z,35.25
2023-07-18T08:19:07.292Z,35.17
2023-07-18T08:21:34.309Z,35.31
2023-07-18T08:24:01.696Z,35.64
2023-07-18T08:26:28.798Z,35.92
2023-07-18T08:28:56.133Z,36.06
2023-07-18T08:31:31.018Z,36.08
2023-07-18T08:33:58.668Z,36.17
2023-07-18T08:36:26.940Z,36.40
2023-07-18T08:38:54.163Z,36.41
2023-07-18T08:41:21.701Z,36.43
2023-07-18T08:43:50.078Z,36.63
2023-07-18T08:46:18.700Z,36.78
2023-07-18T08:48:49.009Z,36.85
2023-07-18T08:51:16.472Z,36.85
2023-07-18T08:53:43.700Z,36.61
2023-07-18T08:56:11.337Z,36.78
2023-07-18T08:58:38.945Z,36.86
2023-07-18T09:01:06.871Z,37.14
2023-07-18T09:03:34.138Z,37.46
2023-07-18T09:06:04.074Z,37.51
2023-07-18T09:08:41.622Z,37.58
2023-07-18T09:11:08.805Z,37.75
2023-07-18T09:13:39.382Z,37.77
2023-07-18T09:16:13.080Z,37.69
2023-07-18T09:18:43.420Z,37.97
2023-07-18T09:21:12.470Z,38.23
2023-07-18T09:23:46.592Z,38.34
2023-07-18T09:26:18.258Z,38.47
2023-07-18T09:28:46.400Z,38.67
2023-07-18T09:31:19.272Z,38.60
2023-07-18T09:33:49.386Z,38.43
2023-07-18T09:36:21.468Z,38.55
2023-07-18T09:38:50.293Z,38.57
2023-07-18T09:41:18.507Z,38.20
2023-07-18T09:43:46.788Z,38.24
2023-07-18T09:46:17.617Z,38.30
2023-07-18T09:48:48.621Z,38.55
2023-07-18T09:51:24.780Z,38.82
2023-07-18T09:53:52.788Z,38.98
2023-07-18T09:56:20.222Z,39.23
2023-07-18T09:58:50.186Z,39.44
2023-07-18T10:01:21.507Z,39.72
2023-07-18T10:03:54.090Z,39.96
2023-07-18T10:06:24.388Z,40.15
2023-07-18T10:08:52.022Z,40.36
2023-07-18T10:11:19.386Z,40.37
2023-07-18T10:14:19.255Z,40.73
2023-07-18T10:16:55.472Z,40.93
2023-07-18T10:19:25.419Z,40.63
2023-07-18T10:21:58.948Z,40.10
2023-07-18T10:24:29.927Z,39.75
2023-07-18T10:27:00.451Z,39.47
2023-07-18T10:29:32.735Z,39.21
2023-07-18T10:32:01.317Z,38.86
2023-07-18T10:34:28.477Z,38.68
2023-07-18T10:36:59.056Z,38.65
2023-07-18T10:39:40.410Z,38.87
2023-07-18T10:42:21.949Z,39.28
2023-07-18T10:44:53.262Z,39.38
2023-07-18T10:47:20.957Z,39.37
2023-07-18T10:49:51.323Z,39.53
2023-07-18T10:52:21.305Z,39.39
2023-07-18T10:54:56.297Z,39.12
2023-07-18T10:57:27.805Z,38.84
2023-07-18T10:59:55.923Z,38.62
2023-07-18T11:02:23.682Z,38.40
2023-07-18T11:04:54.921Z,38.45
2023-07-18T11:07:36.309Z,38.99
2023-07-18T11:10:05.097Z,39.42
2023-07-18T11:12:32.265Z,39.71
2023-07-18T11:15:00.870Z,40.05
2023-07-18T11:17:29.026Z,40.03
2023-07-18T11:19:58.461Z,40.11
2023-07-18T11:22:26.615Z,40.40
2023-07-18T11:24:56.942Z,40.71
2023-07-18T11:27:25.296Z,40.95
2023-07-18T11:30:02.890Z,41.18
2023-07-18T11:32:35.782Z,41.34
2023-07-18T11:35:03.441Z,41.46
2023-07-18T11:37:33.831Z,41.74
2023-07-18T11:40:07.170Z,42.01
2023-07-18T11:42:46.012Z,42.04
2023-07-18T11:45:13.826Z,42.00
2023-07-18T11:47:47.625Z,41.88
2023-07-18T11:50:15.630Z,41.44
2023-07-18T11:52:46.149Z,40.92
2023-07-18T11:55:16.824Z,40.76
2023-07-18T11:57:44.031Z,40.99
2023-07-18T12:00:12.497Z,41.26
2023-07-18T12:02:43.139Z,41.46
2023-07-18T12:05:10.392Z,41.65
2023-07-18T12:07:37.860Z,41.80
2023-07-18T12:10:08.499Z,42.00
2023-07-18T12:12:37.740Z,42.25
2023-07-18T12:15:07.091Z,42.33
2023-07-18T12:17:38.136Z,42.40
2023-07-18T12:20:07.368Z,42.54
2023-07-18T12:22:35.707Z,42.63
2023-07-18T12:25:05.551Z,42.67
2023-07-18T12:27:33.523Z,42.46
2023-07-18T12:30:02.900Z,42.29
2023-07-18T12:32:32.325Z,41.92
2023-07-18T12:35:02.796Z,41.83
2023-07-18T12:37:33.456Z,41.52
2023-07-18T12:40:01.913Z,41.53
2023-07-18T12:42:30.430Z,41.32
2023-07-18T12:44:58.454Z,40.93
2023-07-18T12:47:28.203Z,40.55
2023-07-18T12:49:56.743Z,40.22
2023-07-18T12:52:25.255Z,39.91
2023-07-18T12:54:53.291Z,39.63
2023-07-18T12:57:21.307Z,39.46
2023-07-18T12:59:49.318Z,39.29
2023-07-18T13:02:16.935Z,39.11
2023-07-18T13:04:46.527Z,39.21
2023-07-18T13:07:14.469Z,39.67
2023-07-18T13:09:43.619Z,40.04
2023-07-18T13:12:11.432Z,40.22
2023-07-18T13:14:39.408Z,40.30
2023-07-18T13:17:08.090Z,40.35
2023-07-18T13:19:36.093Z,40.24
2023-07-18T13:22:06.201Z,40.42
2023-07-18T13:24:36.629Z,40.63
2023-07-18T13:27:07.661Z,40.76
2023-07-18T13:29:36.089Z,40.82
2023-07-18T13:32:07.002Z,40.69
2023-07-18T13:34:35.919Z,40.33
2023-07-18T13:37:06.041Z,40.26
2023-07-18T13:39:34.120Z,40.47
2023-07-18T13:42:02.094Z,40.65
2023-07-18T13:44:30.160Z,40.80
2023-07-18T13:46:58.451Z,40.99
2023-07-18T13:52:02.310Z,41.05
2023-07-18T13:54:31.819Z,41.09
2023-07-18T13:56:59.901Z,41.03
2023-07-18T13:59:27.971Z,40.92
2023-07-18T14:01:56.233Z,40.78
2023-07-18T14:04:24.543Z,40.67
2023-07-18T14:06:52.673Z,40.55
2023-07-18T14:09:20.709Z,40.44
2023-07-18T14:11:50.435Z,40.44
2023-07-18T14:14:22.427Z,40.35
2023-07-18T14:16:52.456Z,40.26
2023-07-18T14:19:20.584Z,40.16
2023-07-18T14:21:49.027Z,40.07
2023-07-18T14:24:20.373Z,40.08
2023-07-18T14:26:49.951Z,40.12
2023-07-18T14:29:17.981Z,40.11
2023-07-18T14:31:45.170Z,40.06
2023-07-18T14:34:15.169Z,39.93
2023-07-18T14:36:42.874Z,39.75
2023-07-18T14:39:10.883Z,39.68
2023-07-18T14:41:39.046Z,39.56
2023-07-18T14:44:08.403Z,39.53
2023-07-18T14:46:36.725Z,39.53
2023-07-18T14:49:04.934Z,39.43
2023-07-18T14:51:34.241Z,39.39
2023-07-18T14:54:02.540Z,39.41
2023-07-18T14:56:30.497Z,39.47
2023-07-18T14:58:58.876Z,39.46
2023-07-18T15:01:28.429Z,39.38
2023-07-18T15:03:56.714Z,39.33
2023-07-18T15:06:24.648Z,39.20
2023-07-18T15:08:53.414Z,39.11
2023-07-18T15:11:21.483Z,38.89
2023-07-18T15:13:49.844Z,38.62
2023-07-18T15:16:18.758Z,38.53
2023-07-18T15:18:48.391Z,38.49
2023-07-18T15:21:16.666Z,38.41
2023-07-18T15:23:44.909Z,38.34
2023-07-18T15:26:15.444Z,38.31
2023-07-18T15:28:44.051Z,38.24
2023-07-18T15:31:11.998Z,38.24
2023-07-18T15:33:40.408Z,38.25
2023-07-18T15:36:13.205Z,38.23
2023-07-18T15:38:42.031Z,38.16
2023-07-18T15:41:11.559Z,38.07
2023-07-18T15:43:39.886Z,37.91
2023-07-18T15:46:09.574Z,37.78
2023-07-18T15:48:37.744Z,37.70
2023-07-18T15:51:05.717Z,37.62
2023-07-18T15:53:35.025Z,37.57
2023-07-18T15:56:03.004Z,37.46
2023-07-18T15:58:30.721Z,37.35
2023-07-18T16:00:58.597Z,37.28
2023-07-18T16:03:26.660Z,37.19
2023-07-18T16:05:54.808Z,37.13
2023-07-18T16:08:23.882Z,37.06
2023-07-18T16:10:53.350Z,36.98
2023-07-18T16:13:21.389Z,36.91
2023-07-18T16:15:49.422Z,36.80
2023-07-18T16:18:17.582Z,36.64
2023-07-18T16:20:47.648Z,36.53
2023-07-18T16:23:16.076Z,36.46
2023-07-18T16:25:44.656Z,36.36
2023-07-18T16:28:14.189Z,36.31
2023-07-18T16:30:41.407Z,36.26
2023-07-18T16:33:09.540Z,36.15
2023-07-18T16:35:37.881Z,36.06
2023-07-18T16:38:05.442Z,35.97
2023-07-18T16:40:33.734Z,35.89
2023-07-18T16:43:01.709Z,35.83
2023-07-18T16:45:31.050Z,35.70
2023-07-18T16:47:58.925Z,35.59
2023-07-18T16:50:27.239Z,35.48
2023-07-18T16:52:55.334Z,35.42
2023-07-18T16:55:23.936Z,35.34
2023-07-18T16:57:51.913Z,35.27
2023-07-18T17:00:20.518Z,35.19
2023-07-18T17:02:50.218Z,35.13
2023-07-18T17:05:18.330Z,35.06
2023-07-18T17:07:46.303Z,34.98
2023-07-18T17:10:15.715Z,34.91
2023-07-18T17:12:44.446Z,34.82
2023-07-18T17:15:12.661Z,34.70
2023-07-18T17:17:41.097Z,34.59
2023-07-18T17:20:14.811Z,34.47
2023-07-18T17:22:43.408Z,34.37
2023-07-18T17:25:11.816Z,34.29
2023-07-18T17:27:40.395Z,34.21
2023-07-18T17:30:09.307Z,34.10
2023-07-18T17:32:37.828Z,33.99
2023-07-18T17:35:07.311Z,33.85
2023-07-18T17:37:37.653Z,33.72
2023-07-18T17:40:08.120Z,33.65
2023-07-18T17:42:37.848Z,33.55
2023-07-18T17:45:16.918Z,33.51
2023-07-18T17:47:51.184Z,33.42
2023-07-18T17:50:21.036Z,33.34
2023-07-18T17:52:51.132Z,33.27
2023-07-18T17:55:19.900Z,33.18
2023-07-18T17:57:48.510Z,33.07
2023-07-18T18:00:17.785Z,32.95
2023-07-18T18:02:46.358Z,32.83
2023-07-18T18:05:36.399Z,32.68
2023-07-18T18:08:10.466Z,32.56
2023-07-18T18:10:39.932Z,32.48
2023-07-18T18:13:08.465Z,32.37
2023-07-18T18:15:45.697Z,32.25
2023-07-18T18:18:16.185Z,32.11
2023-07-18T18:20:43.239Z,32.01
2023-07-18T18:23:20.203Z,31.91
2023-07-18T18:25:54.635Z,31.78
2023-07-18T18:28:25.117Z,31.61
2023-07-18T18:30:52.934Z,31.47
2023-07-18T18:33:21.354Z,31.30
2023-07-18T18:35:48.486Z,31.18
2023-07-18T18:38:16.915Z,31.05
2023-07-18T18:40:44.874Z,30.92
2023-07-18T18:43:11.894Z,30.79
2023-07-18T18:45:39.140Z,30.66
2023-07-18T18:48:08.034Z,30.55
2023-07-18T18:50:35.153Z,30.45
2023-07-18T18:53:02.292Z,30.33
2023-07-18T18:55:33.560Z,30.20
2023-07-18T18:58:01.522Z,30.10
2023-07-18T19:00:29.521Z,29.97
2023-07-18T19:02:58.904Z,29.86
2023-07-18T19:05:26.985Z,29.76
2023-07-18T19:07:54.228Z,29.67
2023-07-18T19:10:21.407Z,29.59
2023-07-18T19:12:49.857Z,29.50
2023-07-18T19:15:16.962Z,29.42
2023-07-18T19:17:44.069Z,29.35
2023-07-18T19:20:12.605Z,29.20
2023-07-18T19:22:39.843Z,29.02
2023-07-18T19:25:09.072Z,28.95
2023-07-18T19:27:36.613Z,28.90
2023-07-18T19:30:06.435Z,28.83
2023-07-18T19:32:33.733Z,28.77
2023-07-18T19:35:04.153Z,28.69
2023-07-18T19:37:31.548Z,28.61
2023-07-18T19:39:58.614Z,28.53
2023-07-18T19:42:26.034Z,28.49
2023-07-18T19:44:53.128Z,28.41
2023-07-18T19:47:21.544Z,28.34
2023-07-18T19:49:50.003Z,28.26
2023-07-18T19:52:17.217Z,28.20
2023-07-18T19:54:44.241Z,28.13
2023-07-18T19:57:11.288Z,28.06
2023-07-18T19:59:38.497Z,28.01
2023-07-18T20:02:06.427Z,27.98
2023-07-18T20:04:35.374Z,27.95
2023-07-18T20:07:02.632Z,27.95
2023-07-18T20:09:29.806Z,27.93
2023-07-18T20:11:57.228Z,27.88
2023-07-18T20:14:24.296Z,27.82
2023-07-18T20:16:51.541Z,27.75
2023-07-18T20:19:18.582Z,27.61
2023-07-18T20:21:46.979Z,27.47
2023-07-18T20:24:14.061Z,27.38
2023-07-18T20:26:43.542Z,27.25
2023-07-18T20:29:10.791Z,27.22
2023-07-18T20:31:38.077Z,27.16
2023-07-18T20:34:05.329Z,27.01
2023-07-18T20:36:32.297Z,26.92
2023-07-18T20:39:00.838Z,26.93
2023-07-18T20:41:28.884Z,26.96
2023-07-18T20:43:55.953Z,26.95
2023-07-18T20:46:23.042Z,26.93
2023-07-18T20:48:50.354Z,26.91
2023-07-18T20:51:17.580Z,26.89
2023-07-18T20:53:44.721Z,26.87
2023-07-18T20:56:13.085Z,26.85
2023-07-18T20:58:40.268Z,26.84
2023-07-18T21:01:07.360Z,26.81
2023-07-18T21:03:34.445Z,26.73
2023-07-18T21:06:01.543Z,26.66
2023-07-18T21:08:28.524Z,26.68
2023-07-18T21:10:55.970Z,26.64
2023-07-18T21:13:24.559Z,26.65
2023-07-18T21:15:51.668Z,26.63
2023-07-18T21:18:19.020Z,26.53
2023-07-18T21:20:46.093Z,26.48
2023-07-18T21:23:13.249Z,26.47
2023-07-18T21:25:40.415Z,26.42
2023-07-18T21:28:07.548Z,26.43
2023-07-18T21:30:36.047Z,26.39
2023-07-18T21:33:04.042Z,26.29
2023-07-18T21:35:31.315Z,26.17
2023-07-18T21:37:58.312Z,26.13
2023-07-18T21:40:25.386Z,26.21
2023-07-18T21:42:52.422Z,26.25
2023-07-18T21:45:20.066Z,26.27
2023-07-18T21:47:48.636Z,26.32
2023-07-18T21:50:16.210Z,26.37
2023-07-18T21:52:44.813Z,26.36
2023-07-18T21:55:12.000Z,26.31
2023-07-18T21:57:39.066Z,26.34
2023-07-18T22:00:07.583Z,26.39
2023-07-18T22:02:40.636Z,26.40
2023-07-18T22:05:09.500Z,26.27
2023-07-18T22:07:36.660Z,26.27
2023-07-18T22:10:09.270Z,26.33
2023-07-18T22:12:36.572Z,26.33
2023-07-18T22:15:04.283Z,26.33
2023-07-18T22:17:31.517Z,26.27
2023-07-18T22:19:58.581Z,26.27
2023-07-18T22:22:27.065Z,26.26
2023-07-18T22:24:54.211Z,26.23
2023-07-18T22:27:21.516Z,26.25
2023-07-18T22:29:48.578Z,26.23
2023-07-18T22:32:15.595Z,26.22
2023-07-18T22:34:42.769Z,26.11
2023-07-18T22:37:09.925Z,26.01
2023-07-18T22:39:41.033Z,25.97
2023-07-18T22:42:14.251Z,25.93
2023-07-18T22:44:41.409Z,25.93
2023-07-18T22:47:09.823Z,25.92
2023-07-18T22:49:36.874Z,25.89
2023-07-18T22:52:04.703Z,25.84
2023-07-18T22:54:31.769Z,25.80
2023-07-18T22:57:00.261Z,25.76
2023-07-18T22:59:27.300Z,25.72
2023-07-18T23:01:54.358Z,25.68
2023-07-18T23:04:21.549Z,25.65
2023-07-18T23:06:48.684Z,25.61
2023-07-18T23:09:15.822Z,25.55
2023-07-18T23:11:42.963Z,25.53
2023-07-18T23:14:11.630Z,25.50
2023-07-18T23:16:38.652Z,25.42
2023-07-18T23:19:05.833Z,25.30
2023-07-18T23:21:32.887Z,25.24
2023-07-18T23:23:59.945Z,25.21
2023-07-18T23:26:27.086Z,25.16
2023-07-18T23:28:54.140Z,25.13
2023-07-18T23:31:23.416Z,25.11
2023-07-18T23:33:50.818Z,25.12
2023-07-18T23:36:17.965Z,25.09
2023-07-18T23:38:44.985Z,25.04
2023-07-18T23:41:12.075Z,24.99
2023-07-18T23:43:39.164Z,24.91
2023-07-18T23:46:06.342Z,24.82
2023-07-18T23:48:35.489Z,24.65
2023-07-18T23:51:02.629Z,24.66
2023-07-18T23:53:29.720Z,24.67
2023-07-18T23:55:56.961Z,24.63
2023-07-18T23:58:24.052Z,24.63
